Takamine — 7JKK — position and weather

sailwx.info

Track history (hours):
 
Tides and Currents Weather Stations Pressure Air Temp Water Temp Dewpoint Dewpoint Depression Visibility Wind Speed Wind Dir Waves Ship Positions

Takamine

Last reported at 2015-Mar-29 08:14 UTC. Time now 2015-Apr-28 03:50 UTC.
Position N 01°56' E 102°17'.
Warning: this ship's position is 29 days out of date.

Length 333 m; draft 10.8 m.

Type: Tanker. MMSI: 432832000.

Date/timePositionNaut miles runAvg speedWind from/ knotsBaromVisibWave heightAir tempDewpointWater temp
2015-Mar-29 08:14N 01°56' E 102°17'1014.1
2015-Mar-29 07:32N 01°51' E 102°26'1414.4
2015-Mar-29 06:33N 01°45' E 102°38'8013.4
2015-Mar-29 00:33N 01°12' E 103°51'1211.9
2015-Mar-28 23:33N 01°16' E 104°02'1411.6
2015-Mar-28 22:21N 01°18' E 104°16'  
2015-Mar-20 08:33N 34°57' E 139°39'1414.4
2015-Mar-20 07:33N 35°10' E 139°46'1110.5
2015-Mar-20 06:33N 35°20' E 139°43'1212.4
2015-Mar-20 05:33N 35°30' E 139°52'  
Track history (hours):
 
Tides and Currents Weather Stations Pressure Air Temp Water Temp Dewpoint Dewpoint Depression Visibility Wind Speed Wind Dir Waves Ship Positions

Takamine

Last reported at 2015-Mar-29 08:14 UTC. Time now 2015-Apr-28 03:50 UTC.
Position N 01°56' E 102°17'.
Warning: this ship's position is 29 days out of date.

Length 333 m; draft 10.8 m.

Type: Tanker. MMSI: 432832000.

Date/timePositionNaut miles runAvg speedWind from/ knotsBaromVisibWave heightAir tempDewpointWater temp
2015-Mar-29 08:14N 01°56' E 102°17'1014.1
2015-Mar-29 07:32N 01°51' E 102°26'1414.4
2015-Mar-29 06:33N 01°45' E 102°38'8013.4
2015-Mar-29 00:33N 01°12' E 103°51'1211.9
2015-Mar-28 23:33N 01°16' E 104°02'1411.6
2015-Mar-28 22:21N 01°18' E 104°16'  
2015-Mar-20 08:33N 34°57' E 139°39'1414.4
2015-Mar-20 07:33N 35°10' E 139°46'1110.5
2015-Mar-20 06:33N 35°20' E 139°43'1212.4
2015-Mar-20 05:33N 35°30' E 139°52'  

Dump ship's entire track history